createdAt,value
2018-12-06T00:01:12.688Z,100254.91
2018-12-06T00:03:52.373Z,100255.84
2018-12-06T00:06:31.555Z,100257.60
2018-12-06T00:09:10.923Z,100258.69
2018-12-06T00:11:50.175Z,100262.42
2018-12-06T00:14:29.829Z,100266.59
2018-12-06T00:17:10.682Z,100278.59
2018-12-06T00:19:52.640Z,100281.41
2018-12-06T00:22:32.188Z,100284.64
2018-12-06T00:25:15.412Z,100296.18
2018-12-06T00:27:54.564Z,100294.13
2018-12-06T00:30:43.139Z,100290.95
2018-12-06T00:33:23.011Z,100290.54
2018-12-06T00:36:04.560Z,100286.74
2018-12-06T00:38:43.866Z,100287.80
2018-12-06T00:41:23.946Z,100285.78
2018-12-06T00:44:03.247Z,100284.47
2018-12-06T00:46:44.498Z,100289.41
2018-12-06T00:49:24.398Z,100280.66
2018-12-06T00:52:04.675Z,100280.91
2018-12-06T00:54:46.467Z,100273.49
2018-12-06T00:57:26.733Z,100273.20
2018-12-06T01:00:06.164Z,100272.84
2018-12-06T01:02:45.040Z,100273.26
2018-12-06T01:05:24.395Z,100276.34
2018-12-06T01:08:05.618Z,100277.89
2018-12-06T01:10:44.862Z,100272.23
2018-12-06T01:13:28.562Z,100259.64
2018-12-06T01:16:08.019Z,100269.38
2018-12-06T01:18:47.120Z,100266.47
2018-12-06T01:21:26.520Z,100274.97
2018-12-06T01:24:15.781Z,100275.29
2018-12-06T01:26:55.259Z,100285.59
2018-12-06T01:29:34.580Z,100287.52
2018-12-06T01:32:16.420Z,100289.42
2018-12-06T01:34:57.426Z,100291.22
2018-12-06T01:37:38.828Z,100291.92
2018-12-06T01:43:13.429Z,100286.56
2018-12-06T01:45:52.495Z,100278.23
2018-12-06T01:48:31.970Z,100279.06
2018-12-06T01:51:12.455Z,100274.53
2018-12-06T01:53:51.750Z,100270.91
2018-12-06T01:56:32.005Z,100269.34
2018-12-06T01:59:12.521Z,100271.22
2018-12-06T02:01:52.055Z,100264.66
2018-12-06T02:04:31.198Z,100265.85
2018-12-06T02:07:10.509Z,100260.77
2018-12-06T02:09:49.670Z,100264.36
2018-12-06T02:12:28.831Z,100253.52
2018-12-06T02:15:08.810Z,100260.17
2018-12-06T02:17:47.773Z,100258.88
2018-12-06T02:20:28.055Z,100259.35
2018-12-06T02:23:08.201Z,100255.27
2018-12-06T02:25:48.886Z,100256.56
2018-12-06T02:28:28.159Z,100251.78
2018-12-06T02:31:07.620Z,100249.76
2018-12-06T02:33:46.509Z,100237.72
2018-12-06T02:36:25.796Z,100246.02
2018-12-06T02:39:05.389Z,100246.73
2018-12-06T02:41:44.481Z,100246.06
2018-12-06T02:44:23.585Z,100249.19
2018-12-06T02:47:02.949Z,100242.51
2018-12-06T02:49:42.380Z,100242.15
2018-12-06T02:52:22.394Z,100241.25
2018-12-06T02:55:01.337Z,100229.16
2018-12-06T02:57:41.122Z,100232.18
2018-12-06T03:00:20.363Z,100225.74
2018-12-06T03:02:59.189Z,100227.08
2018-12-06T03:05:37.951Z,100218.11
2018-12-06T03:08:16.975Z,100218.19
2018-12-06T03:10:55.786Z,100221.30
2018-12-06T03:13:35.526Z,100209.56
2018-12-06T03:16:16.097Z,100208.75
2018-12-06T03:18:54.969Z,100212.22
2018-12-06T03:21:34.687Z,100203.70
2018-12-06T03:24:14.097Z,100202.95
2018-12-06T03:26:53.616Z,100196.30
2018-12-06T03:29:32.985Z,100194.36
2018-12-06T03:32:13.453Z,100177.58
2018-12-06T03:34:52.529Z,100172.63
2018-12-06T03:37:31.435Z,100185.58
2018-12-06T03:40:10.334Z,100170.20
2018-12-06T03:42:49.134Z,100183.84
2018-12-06T03:45:28.402Z,100168.30
2018-12-06T03:48:08.277Z,100164.62
2018-12-06T03:50:48.080Z,100170.33
2018-12-06T03:53:26.804Z,100166.01
2018-12-06T03:56:05.757Z,100167.52
2018-12-06T03:58:48.049Z,100163.48
2018-12-06T04:01:27.437Z,100158.35
2018-12-06T04:04:06.567Z,100148.05
2018-12-06T04:06:45.314Z,100150.89
2018-12-06T04:09:25.675Z,100136.92
2018-12-06T04:12:04.993Z,100139.38
2018-12-06T04:14:43.879Z,100131.80
2018-12-06T04:17:25.221Z,100126.78
2018-12-06T04:20:04.406Z,100131.38
2018-12-06T04:22:44.607Z,100121.21
2018-12-06T04:25:23.718Z,100124.48
2018-12-06T04:28:02.786Z,100135.70
2018-12-06T04:30:43.412Z,100130.81
2018-12-06T04:33:23.847Z,100131.16
2018-12-06T04:36:03.151Z,100129.22
2018-12-06T04:38:43.478Z,100132.00
2018-12-06T04:41:23.371Z,100127.07
2018-12-06T04:44:03.426Z,100131.41
2018-12-06T04:46:43.521Z,100131.35
2018-12-06T04:49:22.471Z,100130.83
2018-12-06T04:52:01.647Z,100126.51
2018-12-06T04:54:40.720Z,100121.61
2018-12-06T04:57:20.526Z,100117.78
2018-12-06T05:00:00.017Z,100114.11
2018-12-06T05:02:39.555Z,100113.53
2018-12-06T05:05:19.851Z,100114.03
2018-12-06T05:08:01.779Z,100115.27
2018-12-06T05:10:41.754Z,100108.72
2018-12-06T05:13:20.924Z,100103.64
2018-12-06T05:16:00.055Z,100110.27
2018-12-06T05:18:39.098Z,100117.47
2018-12-06T05:21:20.339Z,100110.63
2018-12-06T05:24:00.149Z,100111.92
2018-12-06T05:26:39.170Z,100118.18
2018-12-06T05:29:18.224Z,100118.41
2018-12-06T05:31:58.168Z,100110.48
2018-12-06T05:34:37.311Z,100112.56
2018-12-06T05:37:16.671Z,100109.64
2018-12-06T05:39:56.899Z,100107.73
2018-12-06T05:42:36.097Z,100121.22
2018-12-06T05:45:31.412Z,100122.85
2018-12-06T05:48:10.496Z,100118.73
2018-12-06T05:50:50.391Z,100128.05
2018-12-06T05:53:30.337Z,100137.56
2018-12-06T05:56:09.352Z,100136.54
2018-12-06T05:58:49.579Z,100140.12
2018-12-06T06:01:28.717Z,100138.45
2018-12-06T06:04:09.032Z,100146.56
2018-12-06T06:06:48.924Z,100140.19
2018-12-06T06:09:27.973Z,100144.22
2018-12-06T06:12:07.106Z,100150.52
2018-12-06T06:14:46.937Z,100155.59
2018-12-06T06:17:25.850Z,100150.04
2018-12-06T06:20:06.355Z,100141.75
2018-12-06T06:22:46.107Z,100149.33
2018-12-06T06:25:27.004Z,100165.55
2018-12-06T06:28:05.825Z,100164.27
2018-12-06T06:30:44.574Z,100162.97
2018-12-06T06:33:23.519Z,100168.02
2018-12-06T06:36:02.587Z,100165.73
2018-12-06T06:38:41.559Z,100174.46
2018-12-06T06:41:20.538Z,100175.34
2018-12-06T06:43:59.583Z,100167.62
2018-12-06T06:46:38.716Z,100165.86
2018-12-06T06:49:17.818Z,100170.89
2018-12-06T06:51:57.137Z,100174.50
2018-12-06T06:54:37.365Z,100171.75
2018-12-06T06:57:19.720Z,100170.11
2018-12-06T06:59:58.503Z,100166.01
2018-12-06T07:02:37.510Z,100166.81
2018-12-06T07:05:16.523Z,100172.94
2018-12-06T07:07:55.456Z,100178.64
2018-12-06T07:10:35.120Z,100186.20
2018-12-06T07:13:14.214Z,100177.80
2018-12-06T07:15:53.295Z,100184.87
2018-12-06T07:18:32.561Z,100189.86
2018-12-06T07:21:12.563Z,100180.59
2018-12-06T07:23:52.507Z,100189.73
2018-12-06T07:26:33.955Z,100191.02
2018-12-06T07:29:14.053Z,100190.55
2018-12-06T07:31:53.044Z,100198.62
2018-12-06T07:34:32.341Z,100192.38
2018-12-06T07:37:12.868Z,100191.31
2018-12-06T07:39:53.232Z,100200.55
2018-12-06T07:42:32.485Z,100194.59
2018-12-06T07:45:12.613Z,100201.48
2018-12-06T07:47:51.916Z,100197.41
2018-12-06T07:50:32.282Z,100192.35
2018-12-06T07:53:11.547Z,100194.77
2018-12-06T07:55:50.999Z,100195.89
2018-12-06T07:58:30.512Z,100188.36
2018-12-06T08:01:10.565Z,100207.14
2018-12-06T08:03:51.999Z,100200.53
2018-12-06T08:06:31.845Z,100207.49
2018-12-06T08:09:15.732Z,100210.73
2018-12-06T08:11:57.303Z,100207.47
2018-12-06T08:14:40.964Z,100206.31
2018-12-06T08:17:25.916Z,100216.95
2018-12-06T08:20:10.697Z,100216.36
2018-12-06T08:22:55.125Z,100214.91
2018-12-06T08:25:38.673Z,100217.10
2018-12-06T08:28:21.951Z,100215.29
2018-12-06T08:31:05.605Z,100211.41
2018-12-06T08:34:21.412Z,100218.19
2018-12-06T08:37:11.918Z,100219.04
2018-12-06T08:39:53.135Z,100223.36
2018-12-06T08:42:36.184Z,100223.22
2018-12-06T08:45:17.832Z,100223.05
2018-12-06T08:48:10.768Z,100228.62
2018-12-06T08:50:52.109Z,100238.61
2018-12-06T08:53:35.848Z,100240.36
2018-12-06T08:56:21.532Z,100249.55
2018-12-06T08:59:06.004Z,100243.34
2018-12-06T09:01:52.743Z,100253.45
2018-12-06T09:04:34.275Z,100256.90
2018-12-06T09:07:17.908Z,100252.45
2018-12-06T09:14:13.180Z,100270.82
2018-12-06T09:24:05.634Z,100265.41
2018-12-06T09:26:58.494Z,100263.02
2018-12-06T09:29:40.601Z,100268.05
2018-12-06T09:35:09.258Z,100275.47
2018-12-06T09:37:50.922Z,100271.17
2018-12-06T09:40:33.201Z,100276.31
2018-12-06T09:43:15.639Z,100270.45
2018-12-06T09:46:10.680Z,100269.97
2018-12-06T09:48:54.172Z,100268.88
2018-12-06T09:51:36.656Z,100271.39
2018-12-06T09:54:19.880Z,100271.41
2018-12-06T09:57:05.009Z,100268.19
2018-12-06T09:59:49.329Z,100271.77
2018-12-06T10:02:34.472Z,100277.05
2018-12-06T10:05:19.443Z,100278.23
2018-12-06T10:08:04.768Z,100281.83
2018-12-06T10:10:48.249Z,100283.98
2018-12-06T10:13:31.824Z,100285.53
2018-12-06T10:16:14.575Z,100281.69
2018-12-06T10:18:59.388Z,100276.42
2018-12-06T10:21:41.802Z,100274.41
2018-12-06T10:24:25.139Z,100278.13
2018-12-06T10:27:12.455Z,100267.92
2018-12-06T10:29:55.695Z,100264.83
2018-12-06T10:32:38.040Z,100268.30
2018-12-06T10:35:25.726Z,100260.49
2018-12-06T10:38:08.903Z,100265.53
2018-12-06T10:40:54.508Z,100275.97
2018-12-06T10:43:37.397Z,100277.15
2018-12-06T10:46:27.009Z,100272.98
2018-12-06T10:49:11.942Z,100276.69
2018-12-06T10:51:56.935Z,100281.85
2018-12-06T10:54:41.108Z,100277.52
2018-12-06T10:57:26.548Z,100278.47
2018-12-06T11:00:08.262Z,100272.50
2018-12-06T11:02:58.805Z,100267.56
2018-12-06T11:05:41.665Z,100279.20
2018-12-06T11:08:25.304Z,100282.89
2018-12-06T11:11:10.483Z,100281.47
2018-12-06T11:13:53.206Z,100286.00
2018-12-06T11:16:40.311Z,100285.00
2018-12-06T11:19:24.597Z,100284.99
2018-12-06T11:22:09.092Z,100290.06
2018-12-06T11:24:52.150Z,100296.19
2018-12-06T11:27:38.536Z,100293.66
2018-12-06T11:30:23.820Z,100282.42
2018-12-06T11:33:08.478Z,100291.48
2018-12-06T11:35:52.474Z,100284.10
2018-12-06T11:38:36.171Z,100281.47
2018-12-06T11:41:20.472Z,100289.38
2018-12-06T11:44:06.232Z,100294.76
2018-12-06T11:46:53.191Z,100295.70
2018-12-06T11:49:41.794Z,100282.79
2018-12-06T11:52:31.957Z,100291.05
2018-12-06T11:55:24.260Z,100290.91
2018-12-06T11:58:48.187Z,100288.16
2018-12-06T12:01:34.982Z,100286.47
2018-12-06T12:04:21.574Z,100279.84
2018-12-06T12:07:06.385Z,100286.05
2018-12-06T12:09:48.385Z,100278.77
2018-12-06T12:12:35.210Z,100281.03
2018-12-06T12:15:18.248Z,100284.64
2018-12-06T12:18:05.935Z,100282.48
2018-12-06T12:20:49.088Z,100285.74
2018-12-06T12:23:33.178Z,100280.11
2018-12-06T12:26:15.213Z,100274.37
2018-12-06T12:29:00.044Z,100271.81
2018-12-06T12:31:44.251Z,100269.39
2018-12-06T12:34:26.189Z,100274.66
2018-12-06T12:37:12.334Z,100275.77
2018-12-06T12:39:59.101Z,100282.36
2018-12-06T12:42:43.381Z,100283.84
2018-12-06T12:45:25.394Z,100289.81
2018-12-06T12:48:10.296Z,100290.91
2018-12-06T12:51:05.767Z,100290.52
2018-12-06T12:53:50.597Z,100292.40
2018-12-06T12:59:32.595Z,100296.38
2018-12-06T13:02:16.383Z,100292.13
2018-12-06T13:05:03.630Z,100294.84
2018-12-06T13:07:47.320Z,100298.27
2018-12-06T13:10:31.883Z,100303.05
2018-12-06T13:13:15.121Z,100292.91
2018-12-06T13:15:58.312Z,100294.42
2018-12-06T13:18:43.447Z,100294.68
2018-12-06T13:21:29.630Z,100307.38
2018-12-06T13:24:11.861Z,100293.64
2018-12-06T13:26:54.358Z,100292.27
2018-12-06T13:29:36.732Z,100287.52
2018-12-06T13:32:21.709Z,100286.42
2018-12-06T13:35:04.114Z,100291.20
2018-12-06T13:37:45.958Z,100292.23
2018-12-06T13:40:27.927Z,100288.27
2018-12-06T13:43:09.123Z,100289.50
2018-12-06T13:45:52.188Z,100289.09
2018-12-06T13:48:36.845Z,100292.61
2018-12-06T13:51:20.146Z,100297.27
2018-12-06T13:54:02.471Z,100297.56
2018-12-06T13:56:43.745Z,100299.75
2018-12-06T13:59:29.694Z,100295.10
2018-12-06T14:02:14.677Z,100300.32
2018-12-06T14:05:00.475Z,100302.13
2018-12-06T14:07:43.014Z,100299.92
2018-12-06T14:10:27.063Z,100300.42
2018-12-06T14:13:09.672Z,100306.95
2018-12-06T14:15:51.607Z,100310.81
2018-12-06T14:18:33.057Z,100308.42
2018-12-06T14:21:13.769Z,100301.31
2018-12-06T14:23:55.216Z,100306.84
2018-12-06T14:26:35.896Z,100307.07
2018-12-06T14:29:16.806Z,100303.70
2018-12-06T14:31:57.803Z,100300.42
2018-12-06T14:34:55.529Z,100298.78
2018-12-06T14:37:38.418Z,100302.27
2018-12-06T14:40:19.374Z,100304.75
2018-12-06T14:43:02.548Z,100303.42
2018-12-06T14:45:43.132Z,100304.75
2018-12-06T14:48:23.719Z,100294.47
2018-12-06T14:51:07.625Z,100297.38
2018-12-06T14:53:50.151Z,100303.77
2018-12-06T14:56:36.698Z,100297.02
2018-12-06T14:59:17.501Z,100294.86
2018-12-06T15:02:00.193Z,100292.92
2018-12-06T15:04:40.607Z,100286.26
2018-12-06T15:07:20.519Z,100294.83
2018-12-06T15:10:05.167Z,100292.94
2018-12-06T15:12:51.747Z,100293.50
2018-12-06T15:15:31.475Z,100292.45
2018-12-06T15:18:11.720Z,100291.41
2018-12-06T15:20:51.498Z,100298.28
2018-12-06T15:23:32.831Z,100294.06
2018-12-06T15:26:11.857Z,100287.30
2018-12-06T15:28:50.961Z,100287.58
2018-12-06T15:31:31.698Z,100280.78
2018-12-06T15:34:11.247Z,100290.64
2018-12-06T15:36:50.314Z,100282.25
2018-12-06T15:39:35.312Z,100285.10
2018-12-06T15:42:15.884Z,100299.27
2018-12-06T15:44:56.723Z,100292.70
2018-12-06T15:47:36.063Z,100289.41
2018-12-06T15:50:15.463Z,100286.08
2018-12-06T15:52:56.545Z,100290.05
2018-12-06T15:55:36.911Z,100288.38
2018-12-06T15:58:18.031Z,100289.03
2018-12-06T16:01:00.628Z,100299.45
2018-12-06T16:03:40.424Z,100291.33
2018-12-06T16:06:19.536Z,100299.11
2018-12-06T16:09:00.826Z,100283.63
2018-12-06T16:11:40.171Z,100291.85
2018-12-06T16:14:19.332Z,100295.38
2018-12-06T16:16:59.344Z,100296.52
2018-12-06T16:19:38.767Z,100296.02
2018-12-06T16:22:18.452Z,100300.11
2018-12-06T16:24:57.980Z,100291.30
2018-12-06T16:27:36.959Z,100304.22
2018-12-06T16:30:16.465Z,100302.54
2018-12-06T16:32:58.634Z,100300.32
2018-12-06T16:35:38.084Z,100291.33
2018-12-06T16:38:17.288Z,100296.40
2018-12-06T16:40:57.526Z,100308.13
2018-12-06T16:43:36.407Z,100314.66
2018-12-06T16:46:15.453Z,100313.16
2018-12-06T16:48:55.460Z,100315.34
2018-12-06T16:51:34.741Z,100297.76
2018-12-06T16:54:14.269Z,100306.16
2018-12-06T16:56:53.499Z,100307.24
2018-12-06T16:59:33.187Z,100305.16
2018-12-06T17:02:12.299Z,100302.66
2018-12-06T17:04:51.252Z,100311.25
2018-12-06T17:07:30.254Z,100311.86
2018-12-06T17:10:09.875Z,100299.48
2018-12-06T17:12:49.869Z,100324.08
2018-12-06T17:15:32.259Z,100317.12
2018-12-06T17:18:11.064Z,100318.95
2018-12-06T17:20:49.889Z,100324.66
2018-12-06T17:23:28.839Z,100317.28
2018-12-06T17:26:08.926Z,100332.16
2018-12-06T17:28:47.677Z,100328.09
2018-12-06T17:31:27.989Z,100332.79
2018-12-06T17:34:06.632Z,100336.68
2018-12-06T17:36:45.734Z,100343.14
2018-12-06T17:39:26.976Z,100332.95
2018-12-06T17:42:05.773Z,100332.72
2018-12-06T17:44:44.506Z,100335.80
2018-12-06T17:47:23.714Z,100340.28
2018-12-06T17:50:02.513Z,100334.00
2018-12-06T17:52:42.082Z,100335.67
2018-12-06T17:55:20.870Z,100343.81
2018-12-06T17:58:01.493Z,100345.09
2018-12-06T18:00:40.767Z,100339.19
2018-12-06T18:03:19.602Z,100335.17
2018-12-06T18:05:59.309Z,100337.86
2018-12-06T18:08:38.267Z,100342.34
2018-12-06T18:11:18.011Z,100336.06
2018-12-06T18:13:57.677Z,100332.86
2018-12-06T18:16:37.534Z,100338.12
2018-12-06T18:19:17.645Z,100329.52
2018-12-06T18:21:58.189Z,100340.66
2018-12-06T18:24:37.392Z,100345.84
2018-12-06T18:27:18.943Z,100336.91
2018-12-06T18:29:57.957Z,100339.14
2018-12-06T18:32:36.939Z,100340.75
2018-12-06T18:35:15.817Z,100349.61
2018-12-06T18:37:55.069Z,100352.33
2018-12-06T18:40:34.446Z,100355.87
2018-12-06T18:43:14.015Z,100354.69
2018-12-06T18:45:53.001Z,100353.77
2018-12-06T18:48:32.129Z,100349.45
2018-12-06T18:51:12.725Z,100338.89
2018-12-06T18:53:53.525Z,100338.69
2018-12-06T18:56:32.571Z,100340.55
2018-12-06T18:59:13.093Z,100339.51
2018-12-06T19:01:52.491Z,100331.38
2018-12-06T19:04:32.011Z,100337.66
2018-12-06T19:07:11.183Z,100340.28
2018-12-06T19:09:50.210Z,100343.16
2018-12-06T19:12:35.762Z,100344.77
2018-12-06T19:15:14.539Z,100342.73
2018-12-06T19:17:54.703Z,100352.07
2018-12-06T19:20:33.525Z,100346.92
2018-12-06T19:23:13.023Z,100344.88
2018-12-06T19:25:52.986Z,100347.00
2018-12-06T19:28:31.814Z,100340.02
2018-12-06T19:31:10.537Z,100339.99
2018-12-06T19:33:49.793Z,100329.41
2018-12-06T19:36:29.055Z,100324.64
2018-12-06T19:39:08.055Z,100324.27
2018-12-06T19:41:46.703Z,100323.34
2018-12-06T19:44:25.908Z,100317.47
2018-12-06T19:47:04.518Z,100314.85
2018-12-06T19:49:44.266Z,100318.95
2018-12-06T19:52:22.975Z,100318.48
2018-12-06T19:55:01.503Z,100321.77
2018-12-06T19:57:40.787Z,100329.71
2018-12-06T20:00:50.558Z,100334.30
2018-12-06T20:03:29.321Z,100326.23
2018-12-06T20:06:17.179Z,100331.20
2018-12-06T20:08:59.722Z,100330.54
2018-12-06T20:11:38.591Z,100338.40
2018-12-06T20:14:17.614Z,100342.86
2018-12-06T20:16:56.598Z,100350.69
2018-12-06T20:19:35.327Z,100348.94
2018-12-06T20:22:15.206Z,100347.25
2018-12-06T20:24:54.730Z,100352.77
2018-12-06T20:27:33.733Z,100346.75
2018-12-06T20:30:14.047Z,100346.95
2018-12-06T20:32:53.212Z,100343.22
2018-12-06T20:35:32.131Z,100348.34
2018-12-06T20:38:12.529Z,100348.05
2018-12-06T20:40:53.030Z,100350.80
2018-12-06T20:43:32.127Z,100350.46
2018-12-06T20:46:12.170Z,100354.38
2018-12-06T20:48:51.490Z,100358.61
2018-12-06T20:51:31.232Z,100360.45
2018-12-06T20:54:10.307Z,100351.97
2018-12-06T20:56:49.164Z,100351.52
2018-12-06T20:59:27.979Z,100348.73
2018-12-06T21:02:07.121Z,100352.10
2018-12-06T21:04:46.085Z,100351.99
2018-12-06T21:07:24.885Z,100350.63
2018-12-06T21:10:03.511Z,100345.39
2018-12-06T21:12:43.459Z,100345.61
2018-12-06T21:15:22.905Z,100344.05
2018-12-06T21:18:05.881Z,100343.17
2018-12-06T21:20:45.857Z,100337.94
2018-12-06T21:23:24.591Z,100346.08
2018-12-06T21:26:04.365Z,100351.86
2018-12-06T21:28:43.248Z,100354.08
2018-12-06T21:31:21.978Z,100344.39
2018-12-06T21:34:00.895Z,100344.45
2018-12-06T21:36:39.593Z,100345.42
2018-12-06T21:39:18.392Z,100352.50
2018-12-06T21:41:57.181Z,100341.89
2018-12-06T21:44:35.957Z,100345.91
2018-12-06T21:47:18.267Z,100352.73
2018-12-06T21:49:57.081Z,100357.91
2018-12-06T21:52:37.359Z,100366.54
2018-12-06T21:55:16.701Z,100364.03
2018-12-06T21:57:56.508Z,100365.42
2018-12-06T22:00:35.162Z,100369.97
2018-12-06T22:03:14.733Z,100368.53
2018-12-06T22:05:53.697Z,100377.79
2018-12-06T22:08:32.541Z,100380.38
2018-12-06T22:11:11.974Z,100381.06
2018-12-06T22:13:50.873Z,100395.95
2018-12-06T22:16:29.610Z,100399.06
2018-12-06T22:19:08.354Z,100403.14
2018-12-06T22:21:47.472Z,100407.51
2018-12-06T22:24:26.249Z,100410.09
2018-12-06T22:27:05.042Z,100406.41
2018-12-06T22:29:45.239Z,100409.84
2018-12-06T22:32:24.244Z,100413.90
2018-12-06T22:35:03.093Z,100403.00
2018-12-06T22:37:42.559Z,100420.48
2018-12-06T22:40:21.334Z,100430.41
2018-12-06T22:43:00.109Z,100428.52
2018-12-06T22:46:16.036Z,100427.52
2018-12-06T22:48:56.385Z,100426.03
2018-12-06T22:51:35.225Z,100434.32
2018-12-06T22:54:13.864Z,100433.09
2018-12-06T22:56:52.539Z,100436.98
2018-12-06T22:59:31.098Z,100443.72
2018-12-06T23:02:10.024Z,100443.19
2018-12-06T23:04:48.708Z,100454.97
2018-12-06T23:07:27.481Z,100461.70
2018-12-06T23:10:06.511Z,100460.33
2018-12-06T23:12:52.204Z,100465.75
2018-12-06T23:15:31.107Z,100470.05
2018-12-06T23:18:09.985Z,100466.08
2018-12-06T23:20:49.076Z,100469.95
2018-12-06T23:23:28.276Z,100470.70
2018-12-06T23:26:09.567Z,100480.35
2018-12-06T23:28:48.334Z,100479.12
2018-12-06T23:31:27.223Z,100481.36
2018-12-06T23:34:06.121Z,100480.48
2018-12-06T23:36:45.847Z,100478.80
2018-12-06T23:39:26.084Z,100483.83
2018-12-06T23:42:04.995Z,100485.53
2018-12-06T23:44:45.654Z,100484.84
2018-12-06T23:47:24.566Z,100485.69
2018-12-06T23:50:04.399Z,100484.67
2018-12-06T23:52:43.328Z,100509.20
2018-12-06T23:55:23.238Z,100507.98
2018-12-06T23:58:01.742Z,100510.86
